Time;durP1;ratioP1;P1;durP2;ratioP2;P2;SDS_P1;SDS_P2;PMS_P1;PMS_P2;Temp;Humidity;BMP_temperature;BMP_pressure;BME280_temperature;BME280_humidity;BME280_pressure;Samples;Min_cycle;Max_cycle;Signal;HPM_P1;HPM_P2
2022/07/09 04:02:10;;;;;;;3.00;2.00;;;13.00;96.30;;;;;;5172505;22;3293257;-77
2022/07/09 04:04:36;;;;;;;9.80;1.87;;;13.00;96.30;;;;;;5036783;28;20180;-77
2022/07/09 04:07:01;;;;;;;2.50;1.63;;;13.00;96.30;;;;;;5052525;28;20187;-76
2022/07/09 04:09:27;;;;;;;2.47;1.67;;;13.00;96.30;;;;;;5048754;28;20264;-77
2022/07/09 04:11:52;;;;;;;3.30;1.80;;;13.00;96.30;;;;;;5020498;28;20224;-77
2022/07/09 04:14:19;;;;;;;3.60;2.10;;;12.90;96.30;;;;;;5013553;28;20248;-77
2022/07/09 04:16:45;;;;;;;2.87;2.13;;;12.90;96.30;;;;;;4996681;28;20169;-77
2022/07/09 04:19:11;;;;;;;5.20;2.20;;;13.00;96.30;;;;;;5025716;28;20505;-77
2022/07/09 04:21:37;;;;;;;2.60;1.73;;;13.20;96.30;;;;;;5034076;28;20472;-77
2022/07/09 04:24:02;;;;;;;6.77;2.70;;;13.30;96.30;;;;;;5015079;28;20509;-76
2022/07/09 04:26:28;;;;;;;4.10;2.03;;;13.30;96.30;;;;;;5015557;28;20639;-75
2022/07/09 04:28:53;;;;;;;7.80;3.63;;;13.40;96.30;;;;;;5015280;28;20180;-74
2022/07/09 04:31:21;;;;;;;3.83;2.23;;;13.50;96.30;;;;;;5033400;28;20200;-74
2022/07/09 04:33:47;;;;;;;10.30;2.83;;;13.60;96.30;;;;;;5033452;28;20655;-76
2022/07/09 04:36:12;;;;;;;6.50;2.00;;;13.80;96.30;;;;;;5015494;28;20415;-76
2022/07/09 04:38:38;;;;;;;4.10;2.20;;;13.80;96.30;;;;;;5032662;28;20208;-74
2022/07/09 04:41:04;;;;;;;4.77;2.00;;;13.80;96.30;;;;;;5017695;28;20263;-74
2022/07/09 04:43:30;;;;;;;5.37;2.10;;;13.90;96.30;;;;;;5013523;28;20586;-73
2022/07/09 04:45:56;;;;;;;14.87;2.67;;;14.00;96.30;;;;;;5015863;28;20435;-74
2022/07/09 04:48:21;;;;;;;8.17;2.20;;;14.20;96.30;;;;;;5012652;28;20864;-73
2022/07/09 04:50:48;;;;;;;4.90;2.53;;;14.30;96.30;;;;;;5013110;28;20205;-74
2022/07/09 04:53:13;;;;;;;8.43;1.97;;;14.30;96.30;;;;;;5013077;28;20188;-74
2022/07/09 04:55:38;;;;;;;6.33;1.70;;;14.50;96.30;;;;;;5013120;28;20415;-74
2022/07/09 04:58:04;;;;;;;4.93;2.30;;;14.60;96.30;;;;;;5012576;28;20181;-74
2022/07/09 05:00:30;;;;;;;4.27;2.00;;;14.60;96.30;;;;;;5012689;28;20176;-74
2022/07/09 05:02:55;;;;;;;6.67;1.93;;;14.80;96.30;;;;;;4995408;28;20628;-75
2022/07/09 05:05:23;;;;;;;2.53;1.80;;;14.90;96.30;;;;;;5012883;28;20184;-74
2022/07/09 05:07:48;;;;;;;3.60;2.13;;;15.10;96.30;;;;;;5012246;28;20629;-74
2022/07/09 05:10:14;;;;;;;3.83;1.80;;;15.40;96.30;;;;;;5012650;28;20492;-74
2022/07/09 05:12:40;;;;;;;3.20;1.83;;;15.70;96.30;;;;;;4994978;28;20548;-77
2022/07/09 05:15:06;;;;;;;6.77;2.13;;;15.70;96.30;;;;;;5012612;28;20169;-74
2022/07/09 05:17:36;;;;;;;4.20;1.77;;;15.60;96.30;;;;;;5012145;28;20275;-74
2022/07/09 05:20:06;;;;;;;3.07;1.83;;;15.50;96.30;;;;;;5012589;28;20478;-74
2022/07/09 05:22:33;;;;;;;6.93;1.83;;;15.60;96.30;;;;;;5012307;28;20442;-77
2022/07/09 05:24:59;;;;;;;6.60;2.60;;;15.60;96.30;;;;;;5013049;28;20792;-74
2022/07/09 05:27:26;;;;;;;3.37;2.30;;;15.50;96.30;;;;;;5022687;28;20415;-78
2022/07/09 05:29:52;;;;;;;3.20;1.80;;;15.70;96.30;;;;;;5032233;28;20415;-74
2022/07/09 05:32:17;;;;;;;4.87;2.30;;;15.70;96.30;;;;;;5032195;28;20996;-74
2022/07/09 05:34:43;;;;;;;4.87;2.03;;;15.50;96.30;;;;;;5014519;28;20419;-74
2022/07/09 05:37:08;;;;;;;3.50;2.40;;;15.50;96.30;;;;;;5032188;28;20176;-75
2022/07/09 05:39:34;;;;;;;6.20;2.20;;;15.40;96.30;;;;;;5028426;28;20189;-74
2022/07/09 05:42:00;;;;;;;11.73;2.50;;;15.30;96.30;;;;;;5012328;28;20587;-76
2022/07/09 05:44:25;;;;;;;3.73;2.10;;;15.20;96.30;;;;;;5017873;28;20184;-74
2022/07/09 05:46:51;;;;;;;7.90;2.23;;;15.20;96.30;;;;;;5014403;28;20242;-77
2022/07/09 05:49:16;;;;;;;5.10;2.07;;;15.10;96.30;;;;;;5000798;28;20176;-74
2022/07/09 05:51:42;;;;;;;4.50;2.13;;;15.10;96.30;;;;;;5018826;28;20195;-73
2022/07/09 05:54:07;;;;;;;4.27;2.63;;;15.10;96.30;;;;;;5019013;28;20185;-74
2022/07/09 05:56:34;;;;;;;5.47;2.23;;;15.20;96.30;;;;;;5018883;28;20181;-74
2022/07/09 05:58:59;;;;;;;8.83;2.50;;;15.40;96.30;;;;;;5018339;28;20564;-75
2022/07/09 06:01:25;;;;;;;7.50;2.47;;;15.70;96.30;;;;;;5018308;28;20451;-76
2022/07/09 06:03:50;;;;;;;3.80;1.87;;;16.00;96.30;;;;;;5018898;28;20173;-74
2022/07/09 06:06:16;;;;;;;3.70;2.40;;;16.30;96.30;;;;;;5018690;28;20242;-74
2022/07/09 06:08:41;;;;;;;6.43;2.30;;;16.30;96.30;;;;;;5018170;28;20177;-76
2022/07/09 06:11:07;;;;;;;10.67;2.63;;;16.30;96.30;;;;;;5018920;28;20285;-74
2022/07/09 06:13:32;;;;;;;4.70;2.20;;;16.30;96.30;;;;;;5018747;28;20641;-74
2022/07/09 06:15:58;;;;;;;4.50;2.30;;;16.30;96.30;;;;;;5018585;28;20252;-77
2022/07/09 06:18:23;;;;;;;8.30;2.10;;;16.30;96.30;;;;;;5000222;28;20193;-73
2022/07/09 06:20:49;;;;;;;3.40;2.00;;;16.40;96.30;;;;;;5018526;28;20539;-73
2022/07/09 06:23:14;;;;;;;3.93;2.17;;;16.60;96.30;;;;;;5020960;28;20184;-74
2022/07/09 06:25:40;;;;;;;3.90;2.40;;;16.70;96.30;;;;;;5018335;28;20684;-77
2022/07/09 06:28:06;;;;;;;3.10;2.07;;;16.80;96.30;;;;;;4999374;28;20165;-75
2022/07/09 06:30:33;;;;;;;4.20;2.77;;;16.60;96.30;;;;;;5017643;28;20161;-76
2022/07/09 06:32:59;;;;;;;7.07;2.83;;;16.50;96.30;;;;;;5015162;28;20451;-77
2022/07/09 06:35:25;;;;;;;4.73;3.10;;;16.30;96.30;;;;;;5018323;28;20946;-75
2022/07/09 06:37:50;;;;;;;7.50;4.27;;;16.40;96.30;;;;;;5017333;28;20173;-75
2022/07/09 06:40:16;;;;;;;7.20;3.43;;;16.40;96.30;;;;;;5027164;28;20230;-76
2022/07/09 06:42:42;;;;;;;7.13;3.47;;;16.40;96.30;;;;;;5037946;28;20196;-76
2022/07/09 06:45:08;;;;;;;4.97;3.80;;;16.40;96.30;;;;;;5032911;28;20181;-76
2022/07/09 06:47:34;;;;;;;4.97;4.40;;;16.30;96.30;;;;;;5016237;28;20165;-76
2022/07/09 06:49:59;;;;;;;4.50;4.07;;;16.40;96.30;;;;;;5018231;28;20416;-76
2022/07/09 06:52:25;;;;;;;7.87;4.10;;;16.50;96.30;;;;;;5018119;28;20255;-75
2022/07/09 06:54:50;;;;;;;4.00;3.60;;;16.80;96.30;;;;;;5017952;28;20184;-75
2022/07/09 06:57:17;;;;;;;5.10;4.20;;;17.10;96.30;;;;;;5016081;28;20568;-76
2022/07/09 06:59:47;;;;;;;9.77;3.93;;;17.20;96.30;;;;;;5013430;28;20200;-76
2022/07/09 07:02:13;;;;;;;8.83;4.40;;;17.40;96.30;;;;;;5017922;28;20473;-76
2022/07/09 07:04:39;;;;;;;8.60;3.90;;;17.50;96.30;;;;;;5027305;28;20483;-76
2022/07/09 07:07:04;;;;;;;7.20;3.80;;;17.60;96.30;;;;;;4997522;28;20495;-76
2022/07/09 07:09:30;;;;;;;4.67;3.50;;;17.50;96.30;;;;;;5021100;28;20187;-75
2022/07/09 07:11:56;;;;;;;9.90;3.63;;;17.80;96.30;;;;;;5016736;28;20200;-76
2022/07/09 07:14:22;;;;;;;5.10;3.30;;;17.60;96.30;;;;;;5034510;28;20647;-75
2022/07/09 07:16:48;;;;;;;9.27;3.20;;;17.30;96.30;;;;;;5026956;28;20434;-75
2022/07/09 07:19:13;;;;;;;3.87;3.00;;;16.90;96.30;;;;;;5014480;28;20661;-76
2022/07/09 07:21:39;;;;;;;3.70;3.33;;;16.70;96.30;;;;;;5014516;28;20199;-75
2022/07/09 07:24:05;;;;;;;5.90;3.50;;;16.40;96.30;;;;;;5014407;28;20180;-75
2022/07/09 07:26:31;;;;;;;7.93;2.90;;;16.50;96.30;;;;;;5014506;28;20192;-75
2022/07/09 07:28:57;;;;;;;6.10;2.53;;;16.50;96.30;;;;;;5014291;28;20446;-76
2022/07/09 07:31:23;;;;;;;3.60;2.67;;;16.40;96.30;;;;;;5014311;28;20192;-76
2022/07/09 07:33:49;;;;;;;2.80;2.20;;;16.10;96.30;;;;;;5014427;28;20416;-76
2022/07/09 07:36:15;;;;;;;3.20;2.53;;;15.80;96.30;;;;;;5014480;28;20211;-76
2022/07/09 07:38:40;;;;;;;4.30;2.53;;;15.70;96.30;;;;;;5013836;28;20854;-73
2022/07/09 07:41:05;;;;;;;7.03;2.50;;;15.70;96.30;;;;;;5030189;28;20660;-73
2022/07/09 07:43:31;;;;;;;4.30;3.23;;;15.90;96.30;;;;;;5034001;28;20180;-73
2022/07/09 07:45:57;;;;;;;7.40;2.60;;;16.10;96.30;;;;;;5033994;28;20175;-75
2022/07/09 07:48:22;;;;;;;3.20;1.93;;;16.40;96.30;;;;;;5033641;28;20204;-74
2022/07/09 07:50:48;;;;;;;2.10;1.60;;;16.70;96.30;;;;;;5027745;28;20205;-75
2022/07/09 07:53:13;;;;;;;8.03;2.20;;;16.90;96.30;;;;;;5013657;28;20177;-74
2022/07/09 07:55:39;;;;;;;3.43;1.77;;;17.00;96.30;;;;;;5014006;28;20184;-74
2022/07/09 07:58:05;;;;;;;3.57;1.60;;;16.90;96.30;;;;;;5013787;28;20177;-74
2022/07/09 08:00:31;;;;;;;7.90;1.67;;;16.80;96.30;;;;;;5013677;28;20200;-74
2022/07/09 08:02:56;;;;;;;1.73;1.50;;;16.70;96.30;;;;;;5013748;28;20416;-74
2022/07/09 08:05:21;;;;;;;3.67;1.60;;;16.50;96.30;;;;;;5013906;28;20211;-74
2022/07/09 08:07:47;;;;;;;1.80;1.70;;;16.50;96.30;;;;;;5013351;28;20581;-74
2022/07/09 08:10:12;;;;;;;5.47;1.83;;;16.60;96.30;;;;;;5013143;28;20181;-74
2022/07/09 08:12:38;;;;;;;4.50;1.87;;;16.70;96.30;;;;;;5013557;28;20212;-75
2022/07/09 08:15:04;;;;;;;2.33;1.50;;;16.80;96.30;;;;;;5013354;28;20173;-74
2022/07/09 08:17:29;;;;;;;3.33;1.53;;;16.80;96.30;;;;;;5013283;28;20292;-74
2022/07/09 08:19:55;;;;;;;2.53;1.43;;;16.70;96.30;;;;;;5013394;28;20452;-73
2022/07/09 08:22:20;;;;;;;1.53;1.40;;;16.60;96.30;;;;;;5013497;28;20234;-74
2022/07/09 08:24:46;;;;;;;2.80;1.50;;;16.70;96.30;;;;;;5013613;28;20173;-76
2022/07/09 08:27:11;;;;;;;3.50;1.60;;;16.80;96.30;;;;;;5013475;28;20188;-73
2022/07/09 08:29:37;;;;;;;1.50;1.40;;;17.00;96.30;;;;;;5013300;28;20184;-74
2022/07/09 08:32:04;;;;;;;2.33;1.90;;;17.40;96.30;;;;;;4995621;28;20197;-75
2022/07/09 08:34:29;;;;;;;2.17;1.30;;;17.90;96.30;;;;;;5013431;28;20264;-74
2022/07/09 08:36:55;;;;;;;4.13;1.87;;;18.00;96.30;;;;;;5013339;28;20506;-76
2022/07/09 08:39:20;;;;;;;2.63;1.73;;;18.20;96.30;;;;;;5013686;28;20208;-76
2022/07/09 08:41:47;;;;;;;7.07;2.07;;;18.20;96.30;;;;;;5012744;28;20247;-77
2022/07/09 08:44:13;;;;;;;1.90;1.70;;;18.20;96.30;;;;;;5002198;28;20177;-77
2022/07/09 08:46:44;;;;;;;3.00;1.70;;;18.20;96.30;;;;;;5030196;28;20419;-76
2022/07/09 08:49:11;;;;;;;5.33;1.83;;;18.00;96.30;;;;;;5021533;28;20785;-76
2022/07/09 08:51:38;;;;;;;3.37;1.60;;;17.70;96.30;;;;;;5005592;28;20446;-76
2022/07/09 08:54:04;;;;;;;2.07;1.80;;;17.50;96.30;;;;;;5023991;28;20424;-76
2022/07/09 08:56:30;;;;;;;3.50;1.73;;;17.60;96.30;;;;;;5025168;28;20783;-77
2022/07/09 08:58:59;;;;;;;2.67;1.80;;;17.50;96.30;;;;;;5025130;28;20461;-76
2022/07/09 09:01:25;;;;;;;2.70;2.10;;;17.60;96.30;;;;;;5007606;28;20466;-76
2022/07/09 09:03:51;;;;;;;1.83;1.60;;;17.70;96.30;;;;;;5013463;28;20416;-76
2022/07/09 09:06:21;;;;;;;3.97;2.07;;;17.80;96.30;;;;;;4995742;28;20415;-76
2022/07/09 09:08:47;;;;;;;7.53;1.73;;;17.70;96.30;;;;;;5012763;28;20626;-76
2022/07/09 09:11:23;;;;;;;2.23;2.07;;;17.80;96.30;;;;;;5013026;28;20436;-76
2022/07/09 09:13:50;;;;;;;7.63;2.00;;;17.90;96.30;;;;;;4995199;28;20180;-77
2022/07/09 09:16:17;;;;;;;4.60;2.03;;;17.80;96.30;;;;;;5017080;28;20899;-76
2022/07/09 09:18:43;;;;;;;3.10;1.70;;;17.90;96.30;;;;;;5014092;28;20501;-77
2022/07/09 09:21:10;;;;;;;3.17;2.00;;;18.10;96.30;;;;;;5018209;28;20456;-77
2022/07/09 09:23:41;;;;;;;2.67;1.80;;;18.40;96.30;;;;;;5016097;28;20422;-76
2022/07/09 09:26:36;;;;;;;2.40;1.57;;;18.60;96.30;;;;;;5013488;28;20966;-76
2022/07/09 09:29:03;;;;;;;1.87;1.57;;;18.60;96.30;;;;;;4982214;28;20428;-75
2022/07/09 09:31:34;;;;;;;1.70;1.50;;;18.50;96.30;;;;;;5011997;28;20452;-76
2022/07/09 09:34:08;;;;;;;4.53;1.70;;;18.50;96.30;;;;;;5012279;28;20427;-76
2022/07/09 09:36:36;;;;;;;2.27;1.60;;;18.30;96.30;;;;;;4994603;28;20786;-73
2022/07/09 09:39:20;;;;;;;2.40;1.83;;;18.10;96.30;;;;;;5012041;28;20546;-76
2022/07/09 09:41:46;;;;;;;2.30;1.30;;;17.60;96.30;;;;;;4992638;28;20425;-76
2022/07/09 09:44:14;;;;;;;1.90;1.80;;;17.70;96.30;;;;;;5011565;28;20412;-77
2022/07/09 09:46:41;;;;;;;3.67;2.20;;;17.60;96.30;;;;;;4993229;28;20474;-75
2022/07/09 09:49:09;;;;;;;2.43;2.20;;;17.80;96.30;;;;;;5010905;28;20426;-76
2022/07/09 09:52:04;;;;;;;2.07;1.97;;;17.90;96.30;;;;;;5011854;28;20427;-76
2022/07/09 09:54:37;;;;;;;3.33;2.23;;;17.80;96.30;;;;;;5012205;28;20411;-76
2022/07/09 09:57:10;;;;;;;3.03;2.30;;;18.00;96.30;;;;;;5012372;28;20412;-77
2022/07/09 09:59:39;;;;;;;3.37;2.30;;;17.90;96.30;;;;;;5012234;28;20955;-76
2022/07/09 10:02:06;;;;;;;2.77;2.40;;;17.80;96.30;;;;;;4995782;28;20483;-76
2022/07/09 10:04:32;;;;;;;8.47;1.90;;;17.60;96.30;;;;;;5012174;28;20416;-74
2022/07/09 10:06:57;;;;;;;2.30;1.70;;;17.40;96.30;;;;;;5012206;28;20423;-75
2022/07/09 10:09:23;;;;;;;2.70;2.23;;;17.40;96.30;;;;;;5026121;28;20212;-75
2022/07/09 10:11:49;;;;;;;2.20;1.70;;;17.30;96.30;;;;;;5031665;28;20196;-74
2022/07/09 10:14:17;;;;;;;4.33;2.50;;;17.30;96.30;;;;;;5022828;28;20199;-76
2022/07/09 10:16:43;;;;;;;5.13;1.57;;;17.30;96.30;;;;;;5012623;28;20419;-75
2022/07/09 10:19:08;;;;;;;3.40;1.80;;;17.20;96.30;;;;;;5012051;28;20879;-75
2022/07/09 10:58:33;;;;;;;2.27;2.17;;;16.40;96.30;;;;;;4991715;28;20492;-76
2022/07/09 11:01:01;;;;;;;2.67;1.67;;;16.80;96.30;;;;;;4989817;28;20433;-76
2022/07/09 11:03:29;;;;;;;7.57;2.17;;;17.10;96.30;;;;;;4975862;28;20720;-76
2022/07/09 11:05:55;;;;;;;1.97;1.77;;;17.00;96.30;;;;;;4975876;28;20406;-77
2022/07/09 11:08:20;;;;;;;3.40;2.40;;;16.90;96.30;;;;;;4978426;28;20410;-79
2022/07/09 11:10:46;;;;;;;2.30;2.10;;;16.80;96.30;;;;;;4979543;28;20444;-76
2022/07/09 11:13:11;;;;;;;2.20;2.00;;;16.90;96.30;;;;;;4962069;28;20175;-77
2022/07/09 11:15:38;;;;;;;4.07;2.30;;;16.80;96.30;;;;;;4976522;28;20192;-76
2022/07/09 11:18:06;;;;;;;5.23;2.60;;;16.70;96.30;;;;;;4958980;28;20174;-76
2022/07/09 11:20:43;;;;;;;2.97;2.40;;;16.70;96.30;;;;;;4958149;28;20454;-76
2022/07/09 11:23:09;;;;;;;2.47;2.30;;;16.80;96.30;;;;;;4975613;28;20926;-78
2022/07/09 11:25:35;;;;;;;2.37;2.17;;;16.70;96.30;;;;;;4975676;28;20405;-76
2022/07/09 11:28:01;;;;;;;2.90;2.60;;;16.50;96.30;;;;;;4975179;28;20461;-80
2022/07/09 11:30:28;;;;;;;3.53;2.43;;;16.50;96.30;;;;;;4975409;28;20186;-74
2022/07/09 11:32:54;;;;;;;2.60;2.40;;;16.60;96.30;;;;;;4975589;28;20177;-74
2022/07/09 11:35:25;;;;;;;3.33;3.03;;;16.60;96.30;;;;;;4975478;28;20418;-73
2022/07/09 11:37:50;;;;;;;3.27;3.07;;;16.60;96.30;;;;;;4974431;28;20175;-74
2022/07/09 11:40:20;;;;;;;3.33;3.03;;;16.80;96.30;;;;;;4975334;28;20537;-75
2022/07/09 11:42:46;;;;;;;3.20;3.00;;;17.00;96.30;;;;;;4975297;28;20229;-76
2022/07/09 11:45:12;;;;;;;3.30;3.00;;;17.40;96.30;;;;;;4974502;28;20434;-79
2022/07/09 11:47:40;;;;;;;2.53;2.37;;;17.70;96.30;;;;;;4975297;28;20634;-81
2022/07/09 11:50:15;;;;;;;2.80;2.60;;;17.80;96.30;;;;;;4975883;28;20260;-78
2022/07/09 11:52:47;;;;;;;2.53;2.30;;;17.80;96.30;;;;;;4965824;28;20453;-80
2022/07/09 11:55:18;;;;;;;3.17;2.47;;;17.70;96.30;;;;;;4959151;28;20425;-77
2022/07/09 11:57:58;;;;;;;2.77;2.50;;;17.50;96.30;;;;;;4975333;28;20449;-78
2022/07/09 12:00:28;;;;;;;2.43;2.23;;;17.50;96.30;;;;;;4975116;28;20464;-78
2022/07/09 12:02:55;;;;;;;2.60;2.40;;;17.50;96.30;;;;;;4974763;28;20445;-78
2022/07/09 12:05:30;;;;;;;3.33;2.40;;;17.60;96.30;;;;;;4974806;28;20416;-78
2022/07/09 12:07:57;;;;;;;2.80;2.50;;;17.40;96.30;;;;;;4974547;28;20409;-78
2022/07/09 12:10:29;;;;;;;3.10;2.50;;;17.20;96.30;;;;;;4971062;28;20924;-79
2022/07/09 12:12:55;;;;;;;2.60;2.20;;;17.10;96.30;;;;;;4981485;28;20422;-79
2022/07/09 12:15:20;;;;;;;2.80;1.90;;;16.90;96.30;;;;;;4976214;28;20495;-80
2022/07/09 12:17:54;;;;;;;2.47;2.27;;;16.70;96.30;;;;;;4974832;28;20187;-75
2022/07/09 12:20:21;;;;;;;2.93;1.93;;;16.80;96.30;;;;;;4974544;28;20285;-76
2022/07/09 12:22:47;;;;;;;2.00;1.83;;;16.70;96.30;;;;;;4958333;28;20446;-80
2022/07/09 12:25:13;;;;;;;2.50;2.30;;;16.70;96.30;;;;;;4954749;29;20418;-78
2022/07/09 12:27:39;;;;;;;2.60;2.40;;;16.70;96.30;;;;;;4954814;29;20418;-78
2022/07/09 12:30:05;;;;;;;2.30;2.00;;;16.60;96.30;;;;;;4955364;29;20410;-76
2022/07/09 12:32:30;;;;;;;2.27;2.07;;;16.90;96.30;;;;;;4958145;28;20697;-77
2022/07/09 12:34:56;;;;;;;2.10;1.90;;;17.30;96.30;;;;;;4974566;28;20473;-76
2022/07/09 12:37:21;;;;;;;2.30;2.13;;;17.40;96.30;;;;;;4974692;28;20204;-76
2022/07/09 12:39:49;;;;;;;2.10;2.00;;;17.50;96.30;;;;;;4979551;28;20224;-80
2022/07/09 12:42:14;;;;;;;2.07;1.87;;;17.70;96.30;;;;;;4958835;28;20218;-76
2022/07/09 12:44:40;;;;;;;2.40;1.50;;;17.70;96.30;;;;;;4955501;29;20497;-76
2022/07/09 12:47:05;;;;;;;2.37;1.80;;;17.80;96.30;;;;;;4955339;29;20179;-77
2022/07/09 12:49:31;;;;;;;2.00;1.90;;;17.80;96.30;;;;;;4955039;29;20655;-75
2022/07/09 12:51:56;;;;;;;2.50;2.30;;;17.90;96.30;;;;;;4954876;28;20602;-75
2022/07/09 12:54:22;;;;;;;1.87;1.70;;;17.80;96.30;;;;;;4970444;28;20182;-76
2022/07/09 12:56:50;;;;;;;3.83;1.60;;;17.90;96.30;;;;;;4956707;28;20225;-75
2022/07/09 12:59:18;;;;;;;2.90;1.93;;;17.80;96.30;;;;;;4977290;28;20204;-76
2022/07/09 13:01:44;;;;;;;6.43;1.77;;;18.10;96.30;;;;;;4976188;28;20430;-77
2022/07/09 13:04:09;;;;;;;2.33;1.40;;;18.20;96.30;;;;;;4973861;28;20512;-75
2022/07/09 13:06:35;;;;;;;2.70;1.80;;;18.00;96.30;;;;;;4973852;28;20198;-75
2022/07/09 13:09:05;;;;;;;1.93;1.70;;;18.10;96.30;;;;;;4973357;28;20178;-77
2022/07/09 13:11:31;;;;;;;2.77;1.47;;;18.40;96.30;;;;;;4973749;28;20204;-76
2022/07/09 13:13:57;;;;;;;4.93;1.40;;;18.30;96.30;;;;;;4973680;28;20417;-76
2022/07/09 13:16:22;;;;;;;1.77;1.30;;;18.30;96.30;;;;;;4973405;28;20182;-79
2022/07/09 13:18:48;;;;;;;2.07;1.30;;;18.20;96.30;;;;;;4973461;28;20562;-75
2022/07/09 13:21:14;;;;;;;1.30;1.20;;;18.20;96.30;;;;;;4975373;28;20277;-76
2022/07/09 13:23:41;;;;;;;1.50;1.00;;;18.30;96.30;;;;;;4962988;28;20181;-75
2022/07/09 13:26:06;;;;;;;3.83;1.23;;;18.30;96.30;;;;;;4957849;28;20430;-75
2022/07/09 13:28:32;;;;;;;2.13;1.27;;;18.20;96.30;;;;;;4973443;28;20421;-75
2022/07/09 13:30:58;;;;;;;1.10;1.00;;;18.10;96.30;;;;;;4973554;28;20227;-76
2022/07/09 13:33:23;;;;;;;7.80;1.10;;;17.90;96.30;;;;;;4973562;28;20213;-76
2022/07/09 13:35:49;;;;;;;1.40;1.30;;;17.70;96.30;;;;;;4973530;28;20170;-79
2022/07/09 13:38:14;;;;;;;2.80;1.23;;;17.80;96.30;;;;;;4973536;28;20184;-75
2022/07/09 13:40:40;;;;;;;2.03;1.07;;;18.20;96.30;;;;;;4967999;28;20201;-76
2022/07/09 13:43:05;;;;;;;1.20;1.03;;;18.70;96.30;;;;;;4992970;28;20256;-79
2022/07/09 13:45:31;;;;;;;2.23;1.10;;;19.00;96.30;;;;;;4992750;28;20169;-79
2022/07/09 13:47:56;;;;;;;2.03;1.30;;;19.20;96.30;;;;;;4992554;28;20533;-79
2022/07/09 13:50:22;;;;;;;1.27;1.17;;;19.40;96.30;;;;;;4975588;28;20547;-79
2022/07/09 13:52:50;;;;;;;2.13;1.13;;;19.40;96.30;;;;;;4992785;28;20185;-80
2022/07/09 13:55:16;;;;;;;1.73;1.20;;;19.60;96.30;;;;;;4992732;28;20177;-80
2022/07/09 13:57:41;;;;;;;1.30;0.93;;;20.00;96.30;;;;;;4992456;28;20523;-77
2022/07/09 14:00:08;;;;;;;2.57;1.13;;;20.20;96.30;;;;;;4992815;28;20868;-76
2022/07/09 14:02:34;;;;;;;2.03;1.63;;;20.50;96.30;;;;;;4992640;28;20201;-77
2022/07/09 14:05:01;;;;;;;6.30;1.27;;;20.90;96.30;;;;;;4993009;28;20439;-76
2022/07/09 14:07:26;;;;;;;1.20;1.10;;;20.90;96.30;;;;;;4992826;28;20444;-78
2022/07/09 14:09:52;;;;;;;4.20;1.17;;;21.00;96.30;;;;;;4996601;28;20440;-76
2022/07/09 14:12:17;;;;;;;1.23;1.10;;;20.50;96.30;;;;;;4996650;28;20707;-76
2022/07/09 14:14:43;;;;;;;2.60;1.20;;;20.30;96.30;;;;;;4996738;28;20527;-76
2022/07/09 14:17:09;;;;;;;1.40;1.17;;;20.20;96.30;;;;;;4996865;28;20180;-76
2022/07/09 14:19:35;;;;;;;5.90;1.30;;;19.90;96.30;;;;;;5006112;28;20531;-75
2022/07/09 14:22:01;;;;;;;1.67;1.00;;;19.80;96.30;;;;;;5002508;28;20213;-77
2022/07/09 14:24:26;;;;;;;3.27;1.40;;;20.30;96.30;;;;;;4981138;28;20169;-79
2022/07/09 14:26:52;;;;;;;3.10;1.40;;;20.60;96.30;;;;;;4996132;28;20181;-75
2022/07/09 14:29:18;;;;;;;1.97;1.30;;;20.90;96.30;;;;;;4995840;28;20182;-76
2022/07/09 14:31:44;;;;;;;1.60;1.40;;;21.00;96.30;;;;;;4995910;28;20189;-79
2022/07/09 14:34:09;;;;;;;1.83;1.33;;;21.40;96.30;;;;;;4996010;28;20659;-78
2022/07/09 14:36:35;;;;;;;1.40;1.30;;;21.70;96.30;;;;;;4996003;28;20203;-76
2022/07/09 14:39:02;;;;;;;1.50;1.30;;;21.20;96.30;;;;;;4995542;28;20237;-75
2022/07/09 14:41:28;;;;;;;6.70;1.60;;;21.50;96.30;;;;;;4977112;28;20190;-77
2022/07/09 14:43:54;;;;;;;1.40;1.20;;;21.60;96.30;;;;;;4976343;28;20413;-78
2022/07/09 14:46:19;;;;;;;1.73;1.30;;;21.10;96.30;;;;;;4976247;28;20413;-76
2022/07/09 14:48:45;;;;;;;2.10;1.20;;;20.50;96.30;;;;;;4976082;28;20209;-75
2022/07/09 14:51:10;;;;;;;1.50;1.00;;;20.10;96.30;;;;;;4976207;28;20560;-75
2022/07/09 14:53:36;;;;;;;1.10;1.00;;;19.90;96.30;;;;;;4976075;28;20178;-79
2022/07/09 14:56:01;;;;;;;1.80;1.20;;;20.00;96.30;;;;;;4976336;28;20193;-76
2022/07/09 14:58:27;;;;;;;1.47;1.10;;;19.70;96.30;;;;;;4975877;28;20662;-76
2022/07/09 15:00:52;;;;;;;1.47;0.97;;;19.90;96.30;;;;;;4976087;28;20194;-76
2022/07/09 15:03:18;;;;;;;3.27;1.07;;;19.80;96.30;;;;;;4976109;28;20257;-78
2022/07/09 15:05:43;;;;;;;1.40;0.90;;;19.70;96.30;;;;;;4976123;28;20171;-75
2022/07/09 15:08:10;;;;;;;1.20;1.10;;;19.70;96.30;;;;;;4975813;28;20210;-76
2022/07/09 15:10:36;;;;;;;1.30;1.00;;;19.70;96.30;;;;;;4975973;28;20174;-76
2022/07/09 15:13:02;;;;;;;1.63;1.03;;;19.40;96.30;;;;;;4976097;28;20499;-76
2022/07/09 15:15:28;;;;;;;2.80;1.30;;;19.10;96.30;;;;;;4976041;28;20509;-76
2022/07/09 15:17:53;;;;;;;1.30;1.20;;;19.10;96.30;;;;;;4975724;28;20449;-76
2022/07/09 15:20:19;;;;;;;3.67;1.27;;;18.90;96.30;;;;;;4974600;28;20222;-79
2022/07/09 15:22:44;;;;;;;1.20;1.00;;;18.90;96.30;;;;;;4975753;28;20205;-76
2022/07/09 15:25:10;;;;;;;4.87;1.30;;;18.50;96.30;;;;;;4974722;28;20170;-77
2022/07/09 15:27:36;;;;;;;2.10;1.33;;;18.20;96.30;;;;;;4975795;28;20574;-77
2022/07/09 15:30:03;;;;;;;5.23;1.30;;;17.90;96.30;;;;;;4975646;28;20346;-73
2022/07/09 15:32:29;;;;;;;4.60;0.90;;;15.60;96.30;;;;;;4975386;28;20836;-74
2022/07/09 15:34:55;;;;;;;1.77;0.80;;;14.60;96.30;;;;;;4975611;28;20456;-74
2022/07/09 15:37:21;;;;;;;2.00;0.80;;;14.20;96.30;;;;;;4975429;28;20634;-73
2022/07/09 15:39:47;;;;;;;5.13;1.07;;;14.20;96.30;;;;;;4975263;28;20205;-74
2022/07/09 15:42:12;;;;;;;1.03;0.80;;;14.20;96.30;;;;;;4975385;28;20190;-74
2022/07/09 15:44:38;;;;;;;1.60;1.00;;;14.20;96.30;;;;;;4975248;28;20460;-74
2022/07/09 15:47:04;;;;;;;2.17;1.00;;;14.40;96.30;;;;;;4975307;28;20224;-75
2022/07/09 15:49:33;;;;;;;1.50;0.80;;;14.50;96.30;;;;;;4974848;28;20185;-79
2022/07/09 15:51:59;;;;;;;1.67;0.80;;;14.70;96.30;;;;;;4973070;28;20285;-77
2022/07/09 15:54:25;;;;;;;1.57;0.83;;;14.80;96.30;;;;;;4975275;28;20413;-77
2022/07/09 15:56:50;;;;;;;1.80;0.80;;;14.90;96.30;;;;;;4975102;28;20425;-77
2022/07/09 15:59:16;;;;;;;4.03;1.10;;;14.80;96.30;;;;;;4974946;28;20206;-76
2022/07/09 16:01:42;;;;;;;3.63;0.93;;;14.80;96.30;;;;;;4975182;28;20685;-80
2022/07/09 16:04:08;;;;;;;2.23;1.10;;;14.90;96.30;;;;;;4975343;28;20410;-80
2022/07/09 16:06:33;;;;;;;1.03;0.60;;;14.90;96.30;;;;;;4975295;28;20926;-77
2022/07/09 16:08:59;;;;;;;3.40;0.80;;;15.00;96.30;;;;;;4975138;28;20175;-77
2022/07/09 16:14:09;;;;;;;2.30;0.70;;;15.10;96.30;;;;;;4975294;28;20213;-77
2022/07/09 16:16:34;;;;;;;4.73;0.90;;;15.10;96.30;;;;;;4975737;28;20421;-80
2022/07/09 16:19:00;;;;;;;1.20;0.80;;;15.00;96.30;;;;;;4975644;28;20213;-81
2022/07/09 16:21:26;;;;;;;1.63;0.80;;;14.90;96.30;;;;;;4974820;28;20218;-80
2022/07/09 16:23:52;;;;;;;1.80;1.00;;;14.80;96.30;;;;;;4974896;28;20177;-80
2022/07/09 16:26:17;;;;;;;2.90;1.27;;;14.70;96.30;;;;;;4974789;28;20414;-80
2022/07/09 16:28:43;;;;;;;2.73;1.07;;;14.80;96.30;;;;;;4974610;28;20229;-79
2022/07/09 16:31:08;;;;;;;3.63;1.00;;;14.90;96.30;;;;;;4972950;28;20259;-80
2022/07/09 16:33:34;;;;;;;2.80;1.00;;;15.10;96.30;;;;;;4974464;28;20184;-80
2022/07/09 16:35:59;;;;;;;1.20;0.80;;;15.20;96.30;;;;;;4974496;28;20174;-80
2022/07/09 16:38:24;;;;;;;1.57;0.90;;;15.40;96.30;;;;;;4974225;28;20174;-80
2022/07/09 16:40:50;;;;;;;2.87;1.50;;;15.40;96.30;;;;;;4976213;28;20224;-79
2022/07/09 16:43:15;;;;;;;2.80;2.50;;;15.40;96.30;;;;;;4993727;28;20216;-80
2022/07/09 16:45:41;;;;;;;1.17;0.97;;;15.40;96.30;;;;;;4993662;28;20178;-79
2022/07/09 16:48:06;;;;;;;1.13;0.97;;;15.70;96.30;;;;;;4976025;28;20174;-80
2022/07/09 16:50:33;;;;;;;3.00;1.30;;;15.50;96.30;;;;;;4993384;28;20178;-79
2022/07/09 16:52:59;;;;;;;2.40;0.80;;;15.70;96.30;;;;;;4993563;28;20181;-79
2022/07/09 16:55:24;;;;;;;2.70;1.00;;;16.10;96.30;;;;;;4976123;28;20431;-75
2022/07/09 16:57:50;;;;;;;1.00;0.73;;;16.40;96.30;;;;;;4975768;28;20917;-79
2022/07/09 17:00:16;;;;;;;1.83;1.00;;;16.50;96.30;;;;;;4993450;28;20212;-79
2022/07/09 17:02:42;;;;;;;3.10;1.00;;;16.30;96.30;;;;;;4975911;28;20201;-79
2022/07/09 17:05:10;;;;;;;1.70;1.00;;;16.30;96.30;;;;;;4993373;28;20896;-80
2022/07/09 17:07:35;;;;;;;2.50;1.00;;;16.20;96.30;;;;;;4993062;28;20409;-76
2022/07/09 17:10:01;;;;;;;3.27;0.90;;;16.30;96.30;;;;;;4993281;28;20516;-76
2022/07/09 17:12:26;;;;;;;1.17;0.90;;;16.30;96.30;;;;;;4993155;28;20291;-78
2022/07/09 17:14:52;;;;;;;1.10;0.80;;;16.20;96.30;;;;;;4993257;28;20247;-76
2022/07/09 17:17:17;;;;;;;1.00;0.90;;;16.20;96.30;;;;;;4993034;28;20182;-77
2022/07/09 17:19:43;;;;;;;2.03;1.10;;;16.20;96.30;;;;;;4993045;28;20201;-77
2022/07/09 17:22:08;;;;;;;1.10;0.80;;;16.10;96.30;;;;;;4993029;28;20204;-75